createdAt,value
2018-01-27T00:01:07.837Z,20.00
2018-01-27T00:03:35.990Z,19.07
2018-01-27T00:06:04.104Z,19.00
2018-01-27T00:08:33.011Z,20.00
2018-01-27T00:11:01.145Z,18.80
2018-01-27T00:13:29.291Z,19.57
2018-01-27T00:15:57.409Z,18.40
2018-01-27T00:18:26.344Z,17.80
2018-01-27T00:20:54.450Z,17.30
2018-01-27T00:23:22.597Z,19.97
2018-01-27T00:25:50.725Z,18.83
2018-01-27T00:28:19.633Z,18.10
2018-01-27T00:30:47.761Z,19.90
2018-01-27T00:33:15.893Z,18.00
2018-01-27T00:35:44.004Z,17.70
2018-01-27T00:38:12.160Z,19.33
2018-01-27T00:40:40.272Z,17.80
2018-01-27T00:43:08.434Z,17.17
2018-01-27T00:45:36.561Z,16.20
2018-01-27T00:48:04.693Z,17.53
2018-01-27T00:50:32.812Z,17.90
2018-01-27T00:53:00.957Z,18.97
2018-01-27T00:55:29.841Z,19.33
2018-01-27T00:57:58.765Z,17.60
2018-01-27T01:00:26.891Z,16.60
2018-01-27T01:02:55.026Z,18.27
2018-01-27T01:05:23.135Z,16.43
2018-01-27T01:07:51.289Z,18.73
2018-01-27T01:10:19.405Z,19.03
2018-01-27T01:12:48.302Z,17.20
2018-01-27T01:15:16.432Z,17.57
2018-01-27T01:17:44.577Z,15.40
2018-01-27T01:20:12.701Z,16.50
2018-01-27T01:22:40.861Z,16.90
2018-01-27T01:25:08.990Z,13.70
2018-01-27T01:27:37.124Z,14.60
2018-01-27T01:30:06.017Z,14.23
2018-01-27T01:32:34.937Z,15.00
2018-01-27T01:35:03.050Z,15.90
2018-01-27T01:37:31.163Z,17.37
2018-01-27T01:40:00.086Z,15.83
2018-01-27T01:42:33.921Z,17.77
2018-01-27T01:45:02.072Z,17.87
2018-01-27T01:47:30.193Z,20.03
2018-01-27T01:49:59.092Z,19.50
2018-01-27T01:52:27.976Z,19.23
2018-01-27T01:54:56.139Z,18.23
2018-01-27T01:57:24.247Z,21.13
2018-01-27T01:59:52.435Z,16.97
2018-01-27T02:02:20.555Z,19.57
2018-01-27T02:04:48.707Z,21.83
2018-01-27T02:07:16.819Z,18.23
2018-01-27T02:09:45.740Z,18.10
2018-01-27T02:12:13.852Z,18.37
2018-01-27T02:14:41.987Z,19.10
2018-01-27T02:17:10.099Z,18.30
2018-01-27T02:19:38.239Z,20.13
2018-01-27T02:22:06.348Z,18.27
2018-01-27T02:24:34.483Z,17.73
2018-01-27T02:27:02.619Z,20.23
2018-01-27T02:29:30.760Z,19.33
2018-01-27T02:31:58.888Z,22.60
2018-01-27T02:34:27.026Z,20.03
2018-01-27T02:36:55.153Z,19.87
2018-01-27T02:39:23.293Z,19.30
2018-01-27T02:41:52.163Z,19.20
2018-01-27T02:44:20.307Z,21.53
2018-01-27T02:46:48.428Z,19.77
2018-01-27T02:49:17.325Z,19.73
2018-01-27T02:51:46.209Z,20.53
2018-01-27T02:54:15.111Z,20.10
2018-01-27T02:56:43.237Z,20.00
2018-01-27T02:59:11.390Z,18.00
2018-01-27T03:01:39.507Z,19.53
2018-01-27T03:04:07.643Z,20.33
2018-01-27T03:06:35.763Z,19.73
2018-01-27T03:09:04.674Z,19.53
2018-01-27T03:11:33.547Z,19.67
2018-01-27T03:14:02.462Z,18.70
2018-01-27T03:16:30.581Z,19.80
2018-01-27T03:18:58.732Z,19.83
2018-01-27T03:21:26.835Z,20.17
2018-01-27T03:23:54.979Z,18.63
2018-01-27T03:26:23.098Z,18.43
2018-01-27T03:28:56.985Z,22.23
2018-01-27T03:31:25.109Z,21.57
2018-01-27T03:33:53.256Z,19.73
2018-01-27T03:36:22.136Z,20.70
2018-01-27T03:38:50.281Z,20.27
2018-01-27T03:41:18.401Z,22.30
2018-01-27T03:43:47.309Z,21.10
2018-01-27T03:46:15.419Z,20.90
2018-01-27T03:48:43.564Z,20.43
2018-01-27T03:51:11.704Z,21.67
2018-01-27T03:53:39.835Z,20.70
2018-01-27T03:56:07.956Z,20.20
2018-01-27T03:58:36.859Z,20.10
2018-01-27T04:01:04.980Z,20.27
2018-01-27T04:03:33.133Z,20.73
2018-01-27T04:06:01.258Z,21.03
2018-01-27T04:08:29.402Z,21.40
2018-01-27T04:10:57.525Z,23.47
2018-01-27T04:13:26.424Z,23.60
2018-01-27T04:15:54.540Z,23.73
2018-01-27T04:18:22.655Z,20.97
2018-01-27T04:20:51.563Z,17.33
2018-01-27T04:23:19.685Z,17.50
2018-01-27T04:25:47.828Z,17.17
2018-01-27T04:28:15.969Z,17.57
2018-01-27T04:30:44.885Z,19.43
2018-01-27T04:33:13.008Z,21.47
2018-01-27T04:35:41.151Z,21.70
2018-01-27T04:38:09.285Z,25.27
2018-01-27T04:40:37.441Z,30.47
2018-01-27T04:43:06.327Z,32.40
2018-01-27T04:45:35.232Z,25.57
2018-01-27T04:48:04.125Z,28.40
2018-01-27T04:50:32.272Z,32.60
2018-01-27T04:53:00.392Z,27.43
2018-01-27T04:55:28.523Z,24.73
2018-01-27T04:57:56.647Z,22.30
2018-01-27T05:00:24.803Z,27.20
2018-01-27T05:02:52.929Z,24.87
2018-01-27T05:05:21.077Z,22.13
2018-01-27T05:07:49.208Z,28.90
2018-01-27T05:10:18.121Z,24.00
2018-01-27T05:12:46.241Z,20.03
2018-01-27T05:15:14.379Z,23.30
2018-01-27T05:17:42.497Z,24.33
2018-01-27T05:20:10.639Z,21.60
2018-01-27T05:22:38.749Z,20.83
2018-01-27T05:25:07.653Z,20.07
2018-01-27T05:27:36.546Z,20.77
2018-01-27T05:30:05.465Z,19.93
2018-01-27T05:32:33.576Z,18.50
2018-01-27T05:35:01.718Z,15.63
2018-01-27T05:37:29.826Z,16.47
2018-01-27T05:39:57.968Z,16.83
2018-01-27T05:42:26.098Z,20.10
2018-01-27T05:44:55.003Z,17.00
2018-01-27T05:47:23.114Z,14.80
2018-01-27T05:49:51.253Z,13.63
2018-01-27T05:52:19.388Z,15.73
2018-01-27T05:54:47.532Z,16.50
2018-01-27T05:57:15.652Z,15.90
2018-01-27T05:59:44.550Z,16.53
2018-01-27T06:02:13.431Z,16.87
2018-01-27T06:04:42.339Z,15.43
2018-01-27T06:07:10.468Z,18.80
2018-01-27T06:09:38.602Z,16.40
2018-01-27T06:12:07.356Z,17.37
2018-01-27T06:14:35.568Z,18.70
2018-01-27T06:17:03.685Z,19.43
2018-01-27T06:19:31.837Z,21.83
2018-01-27T06:21:59.970Z,18.30
2018-01-27T06:24:28.113Z,21.63
2018-01-27T06:26:56.236Z,20.90
2018-01-27T06:29:24.371Z,17.77
2018-01-27T06:31:53.247Z,18.40
2018-01-27T06:34:21.397Z,17.47
2018-01-27T06:36:49.508Z,15.30
2018-01-27T06:39:18.424Z,22.57
2018-01-27T06:41:46.549Z,19.73
2018-01-27T06:44:14.703Z,22.73
2018-01-27T06:46:42.819Z,24.90
2018-01-27T06:49:11.700Z,20.53
2018-01-27T06:51:39.877Z,24.80
2018-01-27T06:54:08.002Z,25.03
2018-01-27T06:56:36.141Z,23.00
2018-01-27T06:59:05.029Z,27.70
2018-01-27T07:01:33.936Z,21.23
2018-01-27T07:04:02.051Z,24.63
2018-01-27T07:06:30.203Z,27.17
2018-01-27T07:08:58.320Z,21.33
2018-01-27T07:11:26.464Z,19.27
2018-01-27T07:13:54.579Z,19.00
2018-01-27T07:16:23.497Z,22.20
2018-01-27T07:18:51.613Z,20.23
2018-01-27T07:21:19.743Z,24.30
2018-01-27T07:23:47.882Z,22.90
2018-01-27T07:26:16.809Z,22.20
2018-01-27T07:28:44.919Z,20.17
2018-01-27T07:31:13.094Z,24.73
2018-01-27T07:33:41.209Z,20.97
2018-01-27T07:36:10.121Z,19.40
2018-01-27T07:38:38.249Z,22.57
2018-01-27T07:41:06.391Z,21.00
2018-01-27T07:43:34.519Z,21.80
2018-01-27T07:46:03.420Z,23.33
2018-01-27T07:48:31.532Z,20.60
2018-01-27T07:50:59.679Z,21.60
2018-01-27T07:53:27.801Z,21.73
2018-01-27T07:55:55.934Z,21.53
2018-01-27T07:58:24.057Z,20.30
2018-01-27T08:00:52.193Z,19.33
2018-01-27T08:03:20.376Z,21.77
2018-01-27T08:05:48.541Z,17.87
2018-01-27T08:08:16.789Z,20.40
2018-01-27T08:10:44.927Z,20.17
2018-01-27T08:13:13.042Z,20.10
2018-01-27T08:15:41.185Z,20.20
2018-01-27T08:18:09.387Z,20.40
2018-01-27T08:20:38.264Z,20.90
2018-01-27T08:23:07.144Z,19.90
2018-01-27T08:25:36.049Z,19.17
2018-01-27T08:28:04.937Z,21.07
2018-01-27T08:30:33.844Z,19.63
2018-01-27T08:33:01.964Z,21.70
2018-01-27T08:35:30.101Z,19.63
2018-01-27T08:37:58.220Z,19.30
2018-01-27T08:40:26.356Z,21.80
2018-01-27T08:42:54.469Z,19.73
2018-01-27T08:45:22.625Z,19.67
2018-01-27T08:47:50.739Z,20.27
2018-01-27T08:50:19.639Z,19.90
2018-01-27T08:52:47.753Z,21.10
2018-01-27T08:55:15.901Z,19.97
2018-01-27T08:57:44.025Z,20.43
2018-01-27T09:00:12.173Z,21.63
2018-01-27T09:02:40.290Z,19.80
2018-01-27T09:05:08.427Z,21.73
2018-01-27T09:07:36.560Z,22.83
2018-01-27T09:10:05.157Z,20.43
2018-01-27T09:12:33.461Z,24.20
2018-01-27T09:15:01.604Z,21.23
2018-01-27T09:17:29.773Z,22.10
2018-01-27T09:19:58.094Z,22.77
2018-01-27T09:22:26.251Z,23.53
2018-01-27T09:24:54.626Z,25.33
2018-01-27T09:27:22.784Z,23.93
2018-01-27T09:29:50.900Z,25.80
2018-01-27T09:32:19.038Z,24.40
2018-01-27T09:34:47.259Z,28.00
2018-01-27T09:37:15.756Z,27.27
2018-01-27T09:39:43.949Z,28.10
2018-01-27T09:42:12.117Z,29.00
2018-01-27T09:44:40.996Z,28.90
2018-01-27T09:47:09.896Z,28.57
2018-01-27T09:49:38.870Z,30.87
2018-01-27T09:52:07.339Z,29.50
2018-01-27T09:54:35.977Z,28.10
2018-01-27T09:57:06.148Z,26.37
2018-01-27T09:59:34.408Z,27.47
2018-01-27T10:02:03.603Z,24.60
2018-01-27T10:04:32.225Z,27.43
2018-01-27T10:07:00.707Z,27.13
2018-01-27T10:09:28.949Z,28.93
2018-01-27T10:11:57.109Z,24.90
2018-01-27T10:14:25.219Z,25.17
2018-01-27T10:16:53.360Z,24.90
2018-01-27T10:19:21.481Z,25.20
2018-01-27T10:21:50.391Z,25.57
2018-01-27T10:24:18.536Z,24.20
2018-01-27T10:26:46.676Z,23.80
2018-01-27T10:29:14.786Z,27.47
2018-01-27T10:31:42.919Z,23.10
2018-01-27T10:34:11.026Z,23.37
2018-01-27T10:36:39.163Z,25.53
2018-01-27T10:39:07.272Z,24.03
2018-01-27T10:41:35.724Z,25.80
2018-01-27T10:44:03.844Z,27.40
2018-01-27T10:46:32.887Z,24.80
2018-01-27T10:49:01.044Z,26.77
2018-01-27T10:51:29.220Z,28.20
2018-01-27T10:53:57.338Z,26.10
2018-01-27T10:56:26.369Z,25.33
2018-01-27T10:58:54.521Z,24.20
2018-01-27T11:01:23.439Z,26.43
2018-01-27T11:03:51.564Z,24.63
2018-01-27T11:06:19.705Z,24.30
2018-01-27T11:08:47.840Z,25.30
2018-01-27T11:11:16.108Z,23.90
2018-01-27T11:13:53.837Z,24.73
2018-01-27T11:16:22.392Z,23.63
2018-01-27T11:18:51.271Z,26.40
2018-01-27T11:21:19.407Z,24.60
2018-01-27T11:23:47.520Z,24.20
2018-01-27T11:26:15.653Z,24.37
2018-01-27T11:28:43.772Z,23.30
2018-01-27T11:31:12.710Z,23.60
2018-01-27T11:33:40.820Z,22.57
2018-01-27T11:36:08.971Z,23.60
2018-01-27T11:38:38.035Z,23.10
2018-01-27T11:41:06.203Z,23.90
2018-01-27T11:43:34.330Z,22.70
2018-01-27T11:46:02.505Z,24.03
2018-01-27T11:48:30.636Z,25.60
2018-01-27T11:50:58.733Z,24.40
2018-01-27T11:53:26.880Z,23.20
2018-01-27T11:55:55.005Z,24.43
2018-01-27T11:58:23.166Z,27.03
2018-01-27T12:00:51.386Z,26.07
2018-01-27T12:03:19.555Z,23.77
2018-01-27T12:05:47.711Z,26.93
2018-01-27T12:08:15.840Z,27.33
2018-01-27T12:10:44.016Z,26.73
2018-01-27T12:13:12.872Z,24.63
2018-01-27T12:15:40.977Z,27.30
2018-01-27T12:18:09.130Z,25.90
2018-01-27T12:20:37.236Z,25.57
2018-01-27T12:23:05.372Z,25.40
2018-01-27T12:25:33.546Z,26.73
2018-01-27T12:28:01.682Z,27.50
2018-01-27T12:30:30.022Z,25.60
2018-01-27T12:32:58.244Z,28.40
2018-01-27T12:35:27.182Z,28.97
2018-01-27T12:37:55.330Z,26.27
2018-01-27T12:40:23.485Z,27.40
2018-01-27T12:42:51.647Z,27.90
2018-01-27T12:45:19.775Z,27.47
2018-01-27T12:47:47.916Z,26.40
2018-01-27T12:50:16.816Z,26.70
2018-01-27T12:52:45.719Z,25.80
2018-01-27T12:55:13.820Z,26.93
2018-01-27T12:57:42.016Z,27.40
2018-01-27T13:00:10.131Z,27.13
2018-01-27T13:02:39.032Z,28.07
2018-01-27T13:05:07.144Z,26.27
2018-01-27T13:07:35.274Z,27.17
2018-01-27T13:10:03.429Z,28.37
2018-01-27T13:12:32.319Z,28.60
2018-01-27T13:15:01.187Z,28.70
2018-01-27T13:17:29.331Z,27.70
2018-01-27T13:19:57.435Z,27.63
2018-01-27T13:22:25.566Z,28.10
2018-01-27T13:24:53.680Z,27.97
2018-01-27T13:27:21.810Z,27.27
2018-01-27T13:29:49.924Z,27.70
2018-01-27T13:32:18.052Z,29.10
2018-01-27T13:34:46.160Z,27.77
2018-01-27T13:37:14.287Z,26.07
2018-01-27T13:39:42.397Z,29.47
2018-01-27T13:42:10.526Z,28.93
2018-01-27T13:44:38.636Z,26.37
2018-01-27T13:47:06.779Z,25.10
2018-01-27T13:49:34.895Z,25.97
2018-01-27T13:52:03.138Z,25.63
2018-01-27T13:54:31.246Z,25.50
2018-01-27T13:56:59.374Z,25.67
2018-01-27T13:59:27.492Z,27.03
2018-01-27T14:01:55.610Z,27.10
2018-01-27T14:04:24.481Z,27.23
2018-01-27T14:06:52.606Z,25.00
2018-01-27T14:09:20.739Z,29.90
2018-01-27T14:11:48.839Z,29.53
2018-01-27T14:14:16.966Z,26.77
2018-01-27T14:16:45.076Z,24.07
2018-01-27T14:19:13.217Z,24.57
2018-01-27T14:21:41.319Z,25.10
2018-01-27T14:24:09.445Z,23.33
2018-01-27T14:26:37.567Z,23.80
2018-01-27T14:29:05.695Z,21.50
2018-01-27T14:31:33.796Z,24.20
2018-01-27T14:34:02.785Z,23.60
2018-01-27T14:36:39.402Z,21.30
2018-01-27T14:39:07.525Z,23.40
2018-01-27T14:41:35.637Z,21.60
2018-01-27T14:44:03.776Z,22.30
2018-01-27T14:46:32.655Z,23.40
2018-01-27T14:49:00.801Z,24.37
2018-01-27T14:51:28.912Z,23.70
2018-01-27T14:53:57.807Z,23.13
2018-01-27T14:56:26.675Z,23.27
2018-01-27T14:58:54.805Z,23.30
2018-01-27T15:01:22.906Z,24.53
2018-01-27T15:03:51.034Z,23.50
2018-01-27T15:06:19.143Z,24.40
2018-01-27T15:08:47.267Z,23.70
2018-01-27T15:11:16.215Z,23.50
2018-01-27T15:13:44.349Z,22.90
2018-01-27T15:16:12.448Z,19.90
2018-01-27T15:18:40.594Z,21.07
2018-01-27T15:21:08.694Z,22.47
2018-01-27T15:23:36.822Z,21.70
2018-01-27T15:26:05.694Z,23.57
2018-01-27T15:28:33.835Z,22.60
2018-01-27T15:31:01.939Z,21.27
2018-01-27T15:33:30.080Z,22.27
2018-01-27T15:35:58.174Z,21.50
2018-01-27T15:38:26.301Z,22.17
2018-01-27T15:40:54.410Z,21.77
2018-01-27T15:43:22.547Z,21.80
2018-01-27T15:45:50.654Z,22.50
2018-01-27T15:48:18.780Z,21.20
2018-01-27T15:50:46.900Z,22.40
2018-01-27T15:53:15.036Z,22.80
2018-01-27T15:55:43.150Z,22.80
2018-01-27T15:58:11.270Z,22.40
2018-01-27T16:00:39.382Z,22.27
2018-01-27T16:03:08.139Z,24.23
2018-01-27T16:05:36.245Z,23.77
2018-01-27T16:08:04.380Z,22.93
2018-01-27T16:10:32.482Z,22.47
2018-01-27T16:13:00.619Z,22.93
2018-01-27T16:15:29.491Z,24.00
2018-01-27T16:17:58.388Z,22.73
2018-01-27T16:20:27.253Z,23.30
2018-01-27T16:22:55.391Z,24.30
2018-01-27T16:25:23.492Z,24.43
2018-01-27T16:27:51.639Z,23.10
2018-01-27T16:30:19.742Z,22.43
2018-01-27T16:32:47.888Z,23.23
2018-01-27T16:35:15.996Z,26.77
2018-01-27T16:37:44.133Z,24.37
2018-01-27T16:40:12.238Z,23.90
2018-01-27T16:42:40.383Z,25.33
2018-01-27T16:45:08.505Z,27.83
2018-01-27T16:47:37.398Z,21.70
2018-01-27T16:50:05.525Z,23.33
2018-01-27T16:52:33.632Z,22.90
2018-01-27T16:55:01.765Z,22.73
2018-01-27T16:57:29.871Z,21.00
2018-01-27T16:59:58.067Z,20.60
2018-01-27T17:02:26.147Z,20.80
2018-01-27T17:04:55.048Z,18.20
2018-01-27T17:07:23.161Z,20.67
2018-01-27T17:09:51.297Z,18.37
2018-01-27T17:12:19.403Z,18.13
2018-01-27T17:14:47.531Z,18.43
2018-01-27T17:17:16.410Z,19.90
2018-01-27T17:19:44.544Z,18.80
2018-01-27T17:22:12.652Z,19.50
2018-01-27T17:24:40.787Z,18.90
2018-01-27T17:27:08.896Z,20.97
2018-01-27T17:29:37.022Z,19.67
2018-01-27T17:32:05.139Z,20.20
2018-01-27T17:34:33.268Z,20.23
2018-01-27T17:37:01.394Z,22.67
2018-01-27T17:39:29.523Z,21.10
2018-01-27T17:41:57.628Z,21.83
2018-01-27T17:44:25.747Z,21.03
2018-01-27T17:47:10.635Z,25.77
2018-01-27T17:49:38.776Z,20.47
2018-01-27T17:52:06.882Z,22.77
2018-01-27T17:54:35.780Z,23.57
2018-01-27T17:57:04.836Z,22.17
2018-01-27T17:59:32.977Z,21.47
2018-01-27T18:02:01.093Z,23.20
2018-01-27T18:04:29.352Z,21.20
2018-01-27T18:06:57.479Z,23.50
2018-01-27T18:09:25.621Z,20.70
2018-01-27T18:11:53.729Z,18.60
2018-01-27T18:14:21.864Z,19.97
2018-01-27T18:16:49.980Z,19.17
2018-01-27T18:19:18.115Z,19.07
2018-01-27T18:21:46.225Z,21.87
2018-01-27T18:24:14.354Z,22.80
2018-01-27T18:26:42.468Z,20.03
2018-01-27T18:29:10.626Z,19.50
2018-01-27T18:31:38.739Z,18.63
2018-01-27T18:34:07.642Z,19.70
2018-01-27T18:36:36.403Z,16.43
2018-01-27T18:39:04.574Z,17.00
2018-01-27T18:41:32.747Z,15.83
2018-01-27T18:44:00.878Z,16.93
2018-01-27T18:46:28.989Z,16.03
2018-01-27T18:48:57.113Z,17.80
2018-01-27T18:51:25.230Z,17.00
2018-01-27T18:53:53.361Z,18.30
2018-01-27T18:56:21.470Z,16.50
2018-01-27T18:58:49.608Z,18.47
2018-01-27T19:01:17.715Z,17.17
2018-01-27T19:03:45.861Z,17.97
2018-01-27T19:06:13.966Z,18.13
2018-01-27T19:08:42.100Z,16.77
2018-01-27T19:11:10.207Z,17.40
2018-01-27T19:13:38.346Z,18.60
2018-01-27T19:16:06.479Z,19.80
2018-01-27T19:18:34.606Z,20.20
2018-01-27T19:21:02.731Z,19.33
2018-01-27T19:23:30.906Z,18.60
2018-01-27T19:25:59.040Z,18.13
2018-01-27T19:28:27.152Z,17.73
2018-01-27T19:30:56.064Z,18.17
2018-01-27T19:33:24.184Z,18.40
2018-01-27T19:35:52.328Z,20.63
2018-01-27T19:38:20.436Z,18.00
2018-01-27T19:40:48.572Z,17.30
2018-01-27T19:43:16.678Z,17.73
2018-01-27T19:45:44.815Z,16.90
2018-01-27T19:48:12.935Z,16.77
2018-01-27T19:50:41.061Z,17.93
2018-01-27T19:53:09.180Z,18.83
2018-01-27T19:55:37.330Z,17.10
2018-01-27T19:58:05.443Z,16.73
2018-01-27T20:00:33.572Z,15.77
2018-01-27T20:03:01.698Z,16.33
2018-01-27T20:05:30.597Z,16.93
2018-01-27T20:07:59.464Z,15.60
2018-01-27T20:10:27.600Z,15.43
2018-01-27T20:12:55.722Z,13.87
2018-01-27T20:15:24.618Z,15.63
2018-01-27T20:17:53.505Z,14.17
2018-01-27T20:20:22.615Z,14.07
2018-01-27T20:22:50.723Z,13.30
2018-01-27T20:25:18.968Z,12.97
2018-01-27T20:27:47.084Z,13.90
2018-01-27T20:30:15.209Z,11.40
2018-01-27T20:32:43.509Z,11.40
2018-01-27T20:35:11.701Z,11.90
2018-01-27T20:37:39.830Z,9.90
2018-01-27T20:40:08.727Z,13.37
2018-01-27T20:42:36.830Z,10.70
2018-01-27T20:45:04.963Z,11.97
2018-01-27T20:47:33.849Z,11.73
2018-01-27T20:50:02.828Z,11.07
2018-01-27T20:52:30.947Z,10.87
2018-01-27T20:54:59.104Z,11.00
2018-01-27T20:57:27.217Z,11.53
